sensor_id;sensor_type;location;lat;lon;timestamp;temperature;humidity
49184;DHT22;35021;49.214;12.270;2022-12-18T00:01:20;18.10;25.10
49184;DHT22;35021;49.214;12.270;2022-12-18T00:03:47;18.10;25.10
49184;DHT22;35021;49.214;12.270;2022-12-18T00:06:15;18.10;25.20
49184;DHT22;35021;49.214;12.270;2022-12-18T00:08:43;18.10;25.10
49184;DHT22;35021;49.214;12.270;2022-12-18T00:11:13;18.10;25.10
49184;DHT22;35021;49.214;12.270;2022-12-18T00:13:40;18.00;25.20
49184;DHT22;35021;49.214;12.270;2022-12-18T00:16:10;18.00;25.20
49184;DHT22;35021;49.214;12.270;2022-12-18T00:18:38;18.00;25.20
49184;DHT22;35021;49.214;12.270;2022-12-18T00:21:08;18.00;25.20
49184;DHT22;35021;49.214;12.270;2022-12-18T00:23:36;18.00;25.30
49184;DHT22;35021;49.214;12.270;2022-12-18T00:26:10;18.00;25.30
49184;DHT22;35021;49.214;12.270;2022-12-18T00:28:37;18.00;25.20
49184;DHT22;35021;49.214;12.270;2022-12-18T00:31:07;18.00;25.20
49184;DHT22;35021;49.214;12.270;2022-12-18T00:33:35;18.00;25.30
49184;DHT22;35021;49.214;12.270;2022-12-18T00:36:14;18.00;25.30
49184;DHT22;35021;49.214;12.270;2022-12-18T00:38:41;18.00;25.40
49184;DHT22;35021;49.214;12.270;2022-12-18T00:41:11;17.90;25.40
49184;DHT22;35021;49.214;12.270;2022-12-18T00:43:38;17.90;25.60
49184;DHT22;35021;49.214;12.270;2022-12-18T00:46:06;18.00;25.60
49184;DHT22;35021;49.214;12.270;2022-12-18T00:48:33;17.90;25.50
49184;DHT22;35021;49.214;12.270;2022-12-18T00:51:00;18.00;25.60
49184;DHT22;35021;49.214;12.270;2022-12-18T00:53:27;18.00;25.60
49184;DHT22;35021;49.214;12.270;2022-12-18T00:55:54;18.00;25.60
49184;DHT22;35021;49.214;12.270;2022-12-18T00:58:20;18.00;25.60
49184;DHT22;35021;49.214;12.270;2022-12-18T01:00:47;18.00;25.60
49184;DHT22;35021;49.214;12.270;2022-12-18T01:03:14;18.10;25.60
49184;DHT22;35021;49.214;12.270;2022-12-18T01:05:41;18.10;25.60
49184;DHT22;35021;49.214;12.270;2022-12-18T01:08:08;18.10;25.80
49184;DHT22;35021;49.214;12.270;2022-12-18T01:10:35;18.10;25.50
49184;DHT22;35021;49.214;12.270;2022-12-18T01:13:02;18.20;25.60
49184;DHT22;35021;49.214;12.270;2022-12-18T01:15:29;18.10;25.60
49184;DHT22;35021;49.214;12.270;2022-12-18T01:17:56;18.20;25.60
49184;DHT22;35021;49.214;12.270;2022-12-18T01:20:23;18.10;25.70
49184;DHT22;35021;49.214;12.270;2022-12-18T01:22:50;18.10;25.70
49184;DHT22;35021;49.214;12.270;2022-12-18T01:25:16;18.10;25.70
49184;DHT22;35021;49.214;12.270;2022-12-18T01:27:43;18.10;25.70
49184;DHT22;35021;49.214;12.270;2022-12-18T01:30:10;18.10;25.80
49184;DHT22;35021;49.214;12.270;2022-12-18T01:32:37;18.10;25.80
49184;DHT22;35021;49.214;12.270;2022-12-18T01:35:04;18.10;25.80
49184;DHT22;35021;49.214;12.270;2022-12-18T01:37:32;18.10;25.80
49184;DHT22;35021;49.214;12.270;2022-12-18T01:39:59;18.10;25.80
49184;DHT22;35021;49.214;12.270;2022-12-18T01:42:25;18.10;25.80
49184;DHT22;35021;49.214;12.270;2022-12-18T01:45:00;18.00;25.80
49184;DHT22;35021;49.214;12.270;2022-12-18T01:50:21;18.10;25.90
49184;DHT22;35021;49.214;12.270;2022-12-18T01:52:55;18.00;25.80
49184;DHT22;35021;49.214;12.270;2022-12-18T01:55:25;18.00;25.80
49184;DHT22;35021;49.214;12.270;2022-12-18T01:57:55;18.00;25.90
49184;DHT22;35021;49.214;12.270;2022-12-18T02:00:24;18.00;25.90
49184;DHT22;35021;49.214;12.270;2022-12-18T02:02:52;18.00;25.90
49184;DHT22;35021;49.214;12.270;2022-12-18T02:06:07;17.90;25.90
49184;DHT22;35021;49.214;12.270;2022-12-18T02:08:22;17.90;25.90
49184;DHT22;35021;49.214;12.270;2022-12-18T02:13:25;17.90;25.90
49184;DHT22;35021;49.214;12.270;2022-12-18T02:18:35;17.90;25.90
49184;DHT22;35021;49.214;12.270;2022-12-18T02:21:25;17.90;25.90
49184;DHT22;35021;49.214;12.270;2022-12-18T02:26:53;17.90;25.90
49184;DHT22;35021;49.214;12.270;2022-12-18T02:31:59;17.90;26.00
49184;DHT22;35021;49.214;12.270;2022-12-18T02:34:29;17.90;25.90
49184;DHT22;35021;49.214;12.270;2022-12-18T02:36:59;17.80;25.90
49184;DHT22;35021;49.214;12.270;2022-12-18T02:39:29;17.80;25.90
49184;DHT22;35021;49.214;12.270;2022-12-18T02:41:58;17.80;25.90
49184;DHT22;35021;49.214;12.270;2022-12-18T02:44:26;17.80;25.90
49184;DHT22;35021;49.214;12.270;2022-12-18T02:46:53;17.80;25.90
49184;DHT22;35021;49.214;12.270;2022-12-18T03:01:21;17.80;25.90
49184;DHT22;35021;49.214;12.270;2022-12-18T03:03:55;17.80;26.50
49184;DHT22;35021;49.214;12.270;2022-12-18T03:06:28;17.80;26.00
49184;DHT22;35021;49.214;12.270;2022-12-18T03:09:45;17.80;26.10
49184;DHT22;35021;49.214;12.270;2022-12-18T03:11:51;17.80;26.10
49184;DHT22;35021;49.214;12.270;2022-12-18T03:14:40;17.80;26.10
49184;DHT22;35021;49.214;12.270;2022-12-18T03:17:11;17.70;26.10
49184;DHT22;35021;49.214;12.270;2022-12-18T03:19:40;17.80;26.10
49184;DHT22;35021;49.214;12.270;2022-12-18T03:22:10;17.80;26.10
49184;DHT22;35021;49.214;12.270;2022-12-18T03:24:37;17.80;26.10
49184;DHT22;35021;49.214;12.270;2022-12-18T03:27:10;17.90;26.10
49184;DHT22;35021;49.214;12.270;2022-12-18T03:29:38;17.90;26.00
49184;DHT22;35021;49.214;12.270;2022-12-18T03:32:21;18.00;26.00
49184;DHT22;35021;49.214;12.270;2022-12-18T03:34:50;18.00;26.00
49184;DHT22;35021;49.214;12.270;2022-12-18T03:37:18;18.10;26.00
49184;DHT22;35021;49.214;12.270;2022-12-18T03:39:45;18.20;25.90
49184;DHT22;35021;49.214;12.270;2022-12-18T03:45:24;18.30;25.90
49184;DHT22;35021;49.214;12.270;2022-12-18T03:53:42;18.40;25.80
49184;DHT22;35021;49.214;12.270;2022-12-18T03:56:12;18.40;25.80
49184;DHT22;35021;49.214;12.270;2022-12-18T03:58:43;18.40;25.80
49184;DHT22;35021;49.214;12.270;2022-12-18T04:01:13;18.40;25.80
49184;DHT22;35021;49.214;12.270;2022-12-18T04:03:42;18.40;25.80
49184;DHT22;35021;49.214;12.270;2022-12-18T04:06:11;18.40;25.90
49184;DHT22;35021;49.214;12.270;2022-12-18T04:08:39;18.40;25.90
49184;DHT22;35021;49.214;12.270;2022-12-18T04:11:06;18.40;25.90
49184;DHT22;35021;49.214;12.270;2022-12-18T04:13:36;18.40;25.90
49184;DHT22;35021;49.214;12.270;2022-12-18T04:16:03;18.40;25.80
49184;DHT22;35021;49.214;12.270;2022-12-18T04:18:30;18.50;25.80
49184;DHT22;35021;49.214;12.270;2022-12-18T04:20:57;18.50;25.80
49184;DHT22;35021;49.214;12.270;2022-12-18T04:23:24;18.50;25.70
49184;DHT22;35021;49.214;12.270;2022-12-18T04:25:51;18.50;25.70
49184;DHT22;35021;49.214;12.270;2022-12-18T04:28:18;18.60;25.70
49184;DHT22;35021;49.214;12.270;2022-12-18T04:30:45;18.60;25.70
49184;DHT22;35021;49.214;12.270;2022-12-18T04:33:13;18.60;25.70
49184;DHT22;35021;49.214;12.270;2022-12-18T04:35:40;18.50;26.20
49184;DHT22;35021;49.214;12.270;2022-12-18T04:38:08;18.50;26.20
49184;DHT22;35021;49.214;12.270;2022-12-18T04:40:36;18.40;25.60
49184;DHT22;35021;49.214;12.270;2022-12-18T04:43:03;18.40;25.60
49184;DHT22;35021;49.214;12.270;2022-12-18T04:45:31;18.40;25.70
49184;DHT22;35021;49.214;12.270;2022-12-18T04:47:59;18.40;25.70
49184;DHT22;35021;49.214;12.270;2022-12-18T04:50:25;18.40;25.70
49184;DHT22;35021;49.214;12.270;2022-12-18T04:52:52;18.40;25.70
49184;DHT22;35021;49.214;12.270;2022-12-18T04:55:19;18.40;25.70
49184;DHT22;35021;49.214;12.270;2022-12-18T04:57:46;18.40;25.60
49184;DHT22;35021;49.214;12.270;2022-12-18T05:00:14;18.50;25.60
49184;DHT22;35021;49.214;12.270;2022-12-18T05:02:41;18.50;25.70
49184;DHT22;35021;49.214;12.270;2022-12-18T05:05:08;18.50;25.60
49184;DHT22;35021;49.214;12.270;2022-12-18T05:07:35;18.60;25.60
49184;DHT22;35021;49.214;12.270;2022-12-18T05:10:02;18.60;25.60
49184;DHT22;35021;49.214;12.270;2022-12-18T05:12:33;18.60;25.60
49184;DHT22;35021;49.214;12.270;2022-12-18T05:15:00;18.50;25.50
49184;DHT22;35021;49.214;12.270;2022-12-18T05:17:28;18.50;25.60
49184;DHT22;35021;49.214;12.270;2022-12-18T05:19:54;18.40;25.60
49184;DHT22;35021;49.214;12.270;2022-12-18T05:22:21;18.40;25.70
49184;DHT22;35021;49.214;12.270;2022-12-18T05:24:48;18.40;25.70
49184;DHT22;35021;49.214;12.270;2022-12-18T05:27:15;18.40;25.70
49184;DHT22;35021;49.214;12.270;2022-12-18T05:29:42;18.40;25.70
49184;DHT22;35021;49.214;12.270;2022-12-18T05:32:08;18.40;25.70
49184;DHT22;35021;49.214;12.270;2022-12-18T05:34:35;18.40;25.70
49184;DHT22;35021;49.214;12.270;2022-12-18T05:37:02;18.40;25.70
49184;DHT22;35021;49.214;12.270;2022-12-18T05:39:29;18.50;25.80
49184;DHT22;35021;49.214;12.270;2022-12-18T05:41:56;18.50;25.70
49184;DHT22;35021;49.214;12.270;2022-12-18T05:44:22;18.50;25.70
49184;DHT22;35021;49.214;12.270;2022-12-18T05:46:49;18.60;25.70
49184;DHT22;35021;49.214;12.270;2022-12-18T05:49:16;18.60;25.70
49184;DHT22;35021;49.214;12.270;2022-12-18T05:51:43;18.60;25.70
49184;DHT22;35021;49.214;12.270;2022-12-18T05:54:10;18.60;25.70
49184;DHT22;35021;49.214;12.270;2022-12-18T05:56:36;18.60;25.60
49184;DHT22;35021;49.214;12.270;2022-12-18T05:59:03;18.50;25.60
49184;DHT22;35021;49.214;12.270;2022-12-18T06:01:30;18.50;25.60
49184;DHT22;35021;49.214;12.270;2022-12-18T06:03:58;18.50;25.60
49184;DHT22;35021;49.214;12.270;2022-12-18T06:06:27;18.50;25.70
49184;DHT22;35021;49.214;12.270;2022-12-18T06:08:54;18.50;25.70
49184;DHT22;35021;49.214;12.270;2022-12-18T06:11:24;18.40;25.60
49184;DHT22;35021;49.214;12.270;2022-12-18T06:13:53;18.50;25.60
49184;DHT22;35021;49.214;12.270;2022-12-18T06:16:25;18.50;25.60
49184;DHT22;35021;49.214;12.270;2022-12-18T06:18:52;18.50;25.50
49184;DHT22;35021;49.214;12.270;2022-12-18T06:21:19;18.50;25.50
49184;DHT22;35021;49.214;12.270;2022-12-18T06:23:46;18.50;25.50
49184;DHT22;35021;49.214;12.270;2022-12-18T06:26:14;18.60;25.50
49184;DHT22;35021;49.214;12.270;2022-12-18T06:28:41;18.60;25.40
49184;DHT22;35021;49.214;12.270;2022-12-18T06:31:08;18.60;25.40
49184;DHT22;35021;49.214;12.270;2022-12-18T06:33:36;18.60;25.30
49184;DHT22;35021;49.214;12.270;2022-12-18T06:36:11;18.60;25.30
49184;DHT22;35021;49.214;12.270;2022-12-18T06:38:40;18.60;25.30
49184;DHT22;35021;49.214;12.270;2022-12-18T06:41:09;18.50;25.30
49184;DHT22;35021;49.214;12.270;2022-12-18T06:43:37;18.50;25.30
49184;DHT22;35021;49.214;12.270;2022-12-18T06:46:04;18.50;25.30
49184;DHT22;35021;49.214;12.270;2022-12-18T06:48:32;18.40;25.30
49184;DHT22;35021;49.214;12.270;2022-12-18T06:50:59;18.40;25.30
49184;DHT22;35021;49.214;12.270;2022-12-18T06:53:26;18.40;25.30
49184;DHT22;35021;49.214;12.270;2022-12-18T06:55:58;18.40;25.20
49184;DHT22;35021;49.214;12.270;2022-12-18T06:58:30;18.50;25.30
49184;DHT22;35021;49.214;12.270;2022-12-18T07:01:05;18.50;25.20
49184;DHT22;35021;49.214;12.270;2022-12-18T07:03:33;18.50;25.20
49184;DHT22;35021;49.214;12.270;2022-12-18T07:05:59;18.50;25.10
49184;DHT22;35021;49.214;12.270;2022-12-18T07:08:26;18.50;25.00
49184;DHT22;35021;49.214;12.270;2022-12-18T07:10:54;18.60;25.00
49184;DHT22;35021;49.214;12.270;2022-12-18T07:13:22;18.60;25.00
49184;DHT22;35021;49.214;12.270;2022-12-18T07:15:49;18.60;25.10
49184;DHT22;35021;49.214;12.270;2022-12-18T07:18:16;18.50;25.10
49184;DHT22;35021;49.214;12.270;2022-12-18T07:20:43;18.50;25.10
49184;DHT22;35021;49.214;12.270;2022-12-18T07:23:11;18.50;25.10
49184;DHT22;35021;49.214;12.270;2022-12-18T07:25:38;18.40;25.10
49184;DHT22;35021;49.214;12.270;2022-12-18T07:28:05;18.40;25.10
49184;DHT22;35021;49.214;12.270;2022-12-18T07:30:32;18.30;25.20
49184;DHT22;35021;49.214;12.270;2022-12-18T07:32:59;18.30;25.20
49184;DHT22;35021;49.214;12.270;2022-12-18T07:35:26;18.30;25.40
49184;DHT22;35021;49.214;12.270;2022-12-18T07:37:53;18.30;25.40
49184;DHT22;35021;49.214;12.270;2022-12-18T07:40:20;18.30;25.30
49184;DHT22;35021;49.214;12.270;2022-12-18T07:42:47;18.20;25.30
49184;DHT22;35021;49.214;12.270;2022-12-18T07:45:15;18.20;25.30
49184;DHT22;35021;49.214;12.270;2022-12-18T07:47:42;18.20;25.30
49184;DHT22;35021;49.214;12.270;2022-12-18T07:50:09;18.10;25.30
49184;DHT22;35021;49.214;12.270;2022-12-18T07:52:36;18.10;25.30
49184;DHT22;35021;49.214;12.270;2022-12-18T07:55:03;18.10;25.30
49184;DHT22;35021;49.214;12.270;2022-12-18T07:57:30;18.10;25.30
49184;DHT22;35021;49.214;12.270;2022-12-18T08:00:17;18.10;25.30
49184;DHT22;35021;49.214;12.270;2022-12-18T08:02:44;18.10;25.20
49184;DHT22;35021;49.214;12.270;2022-12-18T08:05:11;18.00;25.20
49184;DHT22;35021;49.214;12.270;2022-12-18T08:07:39;18.00;25.20
49184;DHT22;35021;49.214;12.270;2022-12-18T08:10:06;18.00;25.20
49184;DHT22;35021;49.214;12.270;2022-12-18T08:12:33;18.00;25.20
49184;DHT22;35021;49.214;12.270;2022-12-18T08:15:00;17.90;25.30
49184;DHT22;35021;49.214;12.270;2022-12-18T08:17:28;17.90;25.30
49184;DHT22;35021;49.214;12.270;2022-12-18T08:19:54;17.80;25.30
49184;DHT22;35021;49.214;12.270;2022-12-18T08:22:21;17.80;25.40
49184;DHT22;35021;49.214;12.270;2022-12-18T08:24:48;17.70;25.50
49184;DHT22;35021;49.214;12.270;2022-12-18T08:27:15;17.70;25.50
49184;DHT22;35021;49.214;12.270;2022-12-18T08:29:58;17.60;25.60
49184;DHT22;35021;49.214;12.270;2022-12-18T08:32:26;17.60;25.60
49184;DHT22;35021;49.214;12.270;2022-12-18T08:34:53;17.50;25.60
49184;DHT22;35021;49.214;12.270;2022-12-18T08:37:20;17.50;25.70
49184;DHT22;35021;49.214;12.270;2022-12-18T08:39:47;17.50;25.70
49184;DHT22;35021;49.214;12.270;2022-12-18T08:42:14;17.40;25.70
49184;DHT22;35021;49.214;12.270;2022-12-18T08:44:59;17.40;25.70
49184;DHT22;35021;49.214;12.270;2022-12-18T08:47:26;17.40;25.70
49184;DHT22;35021;49.214;12.270;2022-12-18T08:49:53;17.30;25.70
49184;DHT22;35021;49.214;12.270;2022-12-18T08:52:20;17.30;25.70
49184;DHT22;35021;49.214;12.270;2022-12-18T08:54:47;17.30;25.70
49184;DHT22;35021;49.214;12.270;2022-12-18T08:57:14;17.30;25.70
49184;DHT22;35021;49.214;12.270;2022-12-18T08:59:41;17.30;25.70
49184;DHT22;35021;49.214;12.270;2022-12-18T09:02:11;17.30;25.70
49184;DHT22;35021;49.214;12.270;2022-12-18T09:04:38;17.30;25.70
49184;DHT22;35021;49.214;12.270;2022-12-18T09:07:06;17.20;25.70
49184;DHT22;35021;49.214;12.270;2022-12-18T09:09:33;17.20;25.70
49184;DHT22;35021;49.214;12.270;2022-12-18T09:12:00;17.20;25.70
49184;DHT22;35021;49.214;12.270;2022-12-18T09:14:27;17.20;25.70
49184;DHT22;35021;49.214;12.270;2022-12-18T09:16:54;17.20;25.70
49184;DHT22;35021;49.214;12.270;2022-12-18T09:19:20;17.10;25.70
49184;DHT22;35021;49.214;12.270;2022-12-18T09:21:47;17.10;25.60
49184;DHT22;35021;49.214;12.270;2022-12-18T09:24:15;17.10;25.60
49184;DHT22;35021;49.214;12.270;2022-12-18T09:26:42;17.10;25.80
49184;DHT22;35021;49.214;12.270;2022-12-18T09:29:14;17.10;26.40
49184;DHT22;35021;49.214;12.270;2022-12-18T09:31:42;17.10;26.30
49184;DHT22;35021;49.214;12.270;2022-12-18T09:34:09;17.10;26.50
49184;DHT22;35021;49.214;12.270;2022-12-18T09:36:36;17.10;26.60
49184;DHT22;35021;49.214;12.270;2022-12-18T09:39:03;17.10;26.50
49184;DHT22;35021;49.214;12.270;2022-12-18T09:46:47;17.20;26.20
49184;DHT22;35021;49.214;12.270;2022-12-18T09:49:19;17.20;26.10
49184;DHT22;35021;49.214;12.270;2022-12-18T09:52:00;17.30;26.10
49184;DHT22;35021;49.214;12.270;2022-12-18T09:54:39;17.40;26.10
49184;DHT22;35021;49.214;12.270;2022-12-18T09:57:09;17.40;25.90
49184;DHT22;35021;49.214;12.270;2022-12-18T09:59:38;17.50;25.80
49184;DHT22;35021;49.214;12.270;2022-12-18T10:02:18;17.50;25.80
49184;DHT22;35021;49.214;12.270;2022-12-18T10:04:57;17.60;25.70
49184;DHT22;35021;49.214;12.270;2022-12-18T10:10:19;17.70;25.60
49184;DHT22;35021;49.214;12.270;2022-12-18T10:16:09;17.80;25.40
49184;DHT22;35021;49.214;12.270;2022-12-18T10:21:23;18.00;25.30
49184;DHT22;35021;49.214;12.270;2022-12-18T10:24:01;18.00;25.30
49184;DHT22;35021;49.214;12.270;2022-12-18T10:26:32;18.00;25.30
49184;DHT22;35021;49.214;12.270;2022-12-18T10:28:59;18.00;25.20
49184;DHT22;35021;49.214;12.270;2022-12-18T10:31:31;18.10;25.20
49184;DHT22;35021;49.214;12.270;2022-12-18T10:33:58;18.10;25.20
49184;DHT22;35021;49.214;12.270;2022-12-18T10:36:25;18.10;25.20
49184;DHT22;35021;49.214;12.270;2022-12-18T10:38:52;18.20;25.20
49184;DHT22;35021;49.214;12.270;2022-12-18T10:43:47;18.30;25.20
49184;DHT22;35021;49.214;12.270;2022-12-18T10:46:17;18.40;25.10
49184;DHT22;35021;49.214;12.270;2022-12-18T10:51:33;18.40;25.00
49184;DHT22;35021;49.214;12.270;2022-12-18T10:54:05;18.50;25.00
49184;DHT22;35021;49.214;12.270;2022-12-18T10:56:36;18.60;25.00
49184;DHT22;35021;49.214;12.270;2022-12-18T10:59:07;18.60;24.90
49184;DHT22;35021;49.214;12.270;2022-12-18T11:01:55;18.60;24.90
49184;DHT22;35021;49.214;12.270;2022-12-18T11:04:25;18.70;24.80
49184;DHT22;35021;49.214;12.270;2022-12-18T11:09:32;18.70;24.80
49184;DHT22;35021;49.214;12.270;2022-12-18T11:12:21;18.80;24.70
49184;DHT22;35021;49.214;12.270;2022-12-18T11:14:51;18.80;24.60
49184;DHT22;35021;49.214;12.270;2022-12-18T11:17:25;18.80;24.60
49184;DHT22;35021;49.214;12.270;2022-12-18T11:19:58;18.80;24.60
49184;DHT22;35021;49.214;12.270;2022-12-18T11:22:31;18.80;24.70
49184;DHT22;35021;49.214;12.270;2022-12-18T11:27:53;18.90;24.70
49184;DHT22;35021;49.214;12.270;2022-12-18T11:33:18;18.90;24.70
49184;DHT22;35021;49.214;12.270;2022-12-18T11:35:51;18.90;24.70
49184;DHT22;35021;49.214;12.270;2022-12-18T11:38:37;19.00;24.70
49184;DHT22;35021;49.214;12.270;2022-12-18T11:43:55;19.00;24.60
49184;DHT22;35021;49.214;12.270;2022-12-18T11:46:26;19.00;24.60
49184;DHT22;35021;49.214;12.270;2022-12-18T11:54:27;19.10;24.60
49184;DHT22;35021;49.214;12.270;2022-12-18T11:56:58;19.10;24.60
49184;DHT22;35021;49.214;12.270;2022-12-18T12:02:33;19.10;24.60
49184;DHT22;35021;49.214;12.270;2022-12-18T12:08:44;19.20;25.20
49184;DHT22;35021;49.214;12.270;2022-12-18T12:11:42;19.30;24.70
49184;DHT22;35021;49.214;12.270;2022-12-18T12:17:02;19.30;24.70
49184;DHT22;35021;49.214;12.270;2022-12-18T12:22:47;19.30;24.70
49184;DHT22;35021;49.214;12.270;2022-12-18T12:25:23;19.30;24.60
49184;DHT22;35021;49.214;12.270;2022-12-18T12:34:01;19.40;24.60
49184;DHT22;35021;49.214;12.270;2022-12-18T12:39:11;19.40;24.50
49184;DHT22;35021;49.214;12.270;2022-12-18T12:41:43;19.40;24.60
49184;DHT22;35021;49.214;12.270;2022-12-18T12:44:38;19.40;24.60
49184;DHT22;35021;49.214;12.270;2022-12-18T12:47:25;19.40;24.60
49184;DHT22;35021;49.214;12.270;2022-12-18T12:49:54;19.40;24.60
49184;DHT22;35021;49.214;12.270;2022-12-18T12:52:43;19.40;24.70
49184;DHT22;35021;49.214;12.270;2022-12-18T12:55:28;19.50;24.70
49184;DHT22;35021;49.214;12.270;2022-12-18T12:58:16;19.50;24.80
49184;DHT22;35021;49.214;12.270;2022-12-18T13:00:53;19.50;24.80
49184;DHT22;35021;49.214;12.270;2022-12-18T13:03:49;19.50;24.80
49184;DHT22;35021;49.214;12.270;2022-12-18T13:07:46;19.50;24.90
49184;DHT22;35021;49.214;12.270;2022-12-18T13:12:53;19.40;24.80
49184;DHT22;35021;49.214;12.270;2022-12-18T13:15:42;19.40;24.80
49184;DHT22;35021;49.214;12.270;2022-12-18T13:18:22;19.40;24.80
49184;DHT22;35021;49.214;12.270;2022-12-18T13:23:35;19.30;24.80
49184;DHT22;35021;49.214;12.270;2022-12-18T13:36:54;19.00;24.90
49184;DHT22;35021;49.214;12.270;2022-12-18T13:39:24;18.90;24.90
49184;DHT22;35021;49.214;12.270;2022-12-18T13:44:58;18.90;25.00
49184;DHT22;35021;49.214;12.270;2022-12-18T13:47:31;18.80;25.50
49184;DHT22;35021;49.214;12.270;2022-12-18T13:50:00;18.90;25.00
49184;DHT22;35021;49.214;12.270;2022-12-18T13:52:28;18.90;25.10
49184;DHT22;35021;49.214;12.270;2022-12-18T13:55:02;18.90;25.00
49184;DHT22;35021;49.214;12.270;2022-12-18T13:57:35;18.90;25.00
49184;DHT22;35021;49.214;12.270;2022-12-18T14:02:51;18.90;24.90
49184;DHT22;35021;49.214;12.270;2022-12-18T14:07:50;19.00;24.80
49184;DHT22;35021;49.214;12.270;2022-12-18T14:10:18;19.00;24.80
49184;DHT22;35021;49.214;12.270;2022-12-18T14:13:08;19.00;24.80
49184;DHT22;35021;49.214;12.270;2022-12-18T14:15:41;19.10;24.80
49184;DHT22;35021;49.214;12.270;2022-12-18T14:18:25;19.10;24.80
49184;DHT22;35021;49.214;12.270;2022-12-18T14:20:58;19.10;24.80
49184;DHT22;35021;49.214;12.270;2022-12-18T14:26:01;19.10;24.70
49184;DHT22;35021;49.214;12.270;2022-12-18T14:28:32;19.10;24.70
49184;DHT22;35021;49.214;12.270;2022-12-18T14:30:59;19.10;24.70
49184;DHT22;35021;49.214;12.270;2022-12-18T14:33:27;19.10;24.70
49184;DHT22;35021;49.214;12.270;2022-12-18T14:36:02;19.20;24.70
49184;DHT22;35021;49.214;12.270;2022-12-18T14:38:37;19.10;24.60
49184;DHT22;35021;49.214;12.270;2022-12-18T14:41:09;19.20;24.60
49184;DHT22;35021;49.214;12.270;2022-12-18T14:43:39;19.20;24.60
49184;DHT22;35021;49.214;12.270;2022-12-18T14:48:53;19.20;24.60
49184;DHT22;35021;49.214;12.270;2022-12-18T14:51:27;19.20;24.50
49184;DHT22;35021;49.214;12.270;2022-12-18T14:53:57;19.20;24.50
49184;DHT22;35021;49.214;12.270;2022-12-18T14:56:33;19.30;24.50
49184;DHT22;35021;49.214;12.270;2022-12-18T14:59:16;19.30;24.50
49184;DHT22;35021;49.214;12.270;2022-12-18T15:05:05;19.30;24.50
49184;DHT22;35021;49.214;12.270;2022-12-18T15:07:49;19.30;24.30
49184;DHT22;35021;49.214;12.270;2022-12-18T15:13:29;19.30;24.20
49184;DHT22;35021;49.214;12.270;2022-12-18T15:23:21;19.30;24.10
49184;DHT22;35021;49.214;12.270;2022-12-18T15:25:59;19.30;24.10
49184;DHT22;35021;49.214;12.270;2022-12-18T15:31:04;19.30;24.00
49184;DHT22;35021;49.214;12.270;2022-12-18T15:36:11;19.20;23.90
49184;DHT22;35021;49.214;12.270;2022-12-18T15:38:38;19.20;24.00
49184;DHT22;35021;49.214;12.270;2022-12-18T15:41:23;19.20;23.90
49184;DHT22;35021;49.214;12.270;2022-12-18T15:43:52;19.20;23.90
49184;DHT22;35021;49.214;12.270;2022-12-18T15:46:23;19.30;23.90
49184;DHT22;35021;49.214;12.270;2022-12-18T15:48:52;19.20;23.80
49184;DHT22;35021;49.214;12.270;2022-12-18T15:51:35;19.20;23.80
49184;DHT22;35021;49.214;12.270;2022-12-18T15:54:04;19.20;23.80
49184;DHT22;35021;49.214;12.270;2022-12-18T15:56:32;19.20;23.70
49184;DHT22;35021;49.214;12.270;2022-12-18T15:59:19;19.30;23.70
49184;DHT22;35021;49.214;12.270;2022-12-18T16:01:48;19.30;23.60
49184;DHT22;35021;49.214;12.270;2022-12-18T16:04:17;19.30;23.60
49184;DHT22;35021;49.214;12.270;2022-12-18T16:06:47;19.30;23.50
49184;DHT22;35021;49.214;12.270;2022-12-18T16:09:34;19.30;23.50
49184;DHT22;35021;49.214;12.270;2022-12-18T16:12:01;19.40;23.40
49184;DHT22;35021;49.214;12.270;2022-12-18T16:14:30;19.40;23.40
49184;DHT22;35021;49.214;12.270;2022-12-18T16:17:02;19.40;23.30
49184;DHT22;35021;49.214;12.270;2022-12-18T16:19:30;19.50;23.30
49184;DHT22;35021;49.214;12.270;2022-12-18T16:21:58;19.40;23.20
49184;DHT22;35021;49.214;12.270;2022-12-18T16:24:27;19.40;23.20
49184;DHT22;35021;49.214;12.270;2022-12-18T16:26:57;19.40;23.10
49184;DHT22;35021;49.214;12.270;2022-12-18T16:29:27;19.30;23.20
49184;DHT22;35021;49.214;12.270;2022-12-18T16:31:59;19.20;23.20
49184;DHT22;35021;49.214;12.270;2022-12-18T16:34:27;19.10;23.30
49184;DHT22;35021;49.214;12.270;2022-12-18T16:36:57;19.00;23.40
49184;DHT22;35021;49.214;12.270;2022-12-18T16:39:31;18.90;23.40
49184;DHT22;35021;49.214;12.270;2022-12-18T16:42:00;18.90;23.40
49184;DHT22;35021;49.214;12.270;2022-12-18T16:44:32;18.80;23.40
49184;DHT22;35021;49.214;12.270;2022-12-18T16:46:59;18.80;23.50
49184;DHT22;35021;49.214;12.270;2022-12-18T16:49:28;18.70;23.40
49184;DHT22;35021;49.214;12.270;2022-12-18T16:51:55;18.70;23.40
49184;DHT22;35021;49.214;12.270;2022-12-18T16:54:22;18.80;23.50
49184;DHT22;35021;49.214;12.270;2022-12-18T16:56:50;18.80;23.50
49184;DHT22;35021;49.214;12.270;2022-12-18T16:59:18;18.80;23.50
49184;DHT22;35021;49.214;12.270;2022-12-18T17:01:45;18.80;23.40
49184;DHT22;35021;49.214;12.270;2022-12-18T17:04:13;18.80;23.40
49184;DHT22;35021;49.214;12.270;2022-12-18T17:06:43;18.80;23.40
49184;DHT22;35021;49.214;12.270;2022-12-18T17:09:14;18.80;23.40
49184;DHT22;35021;49.214;12.270;2022-12-18T17:11:42;18.80;23.40
49184;DHT22;35021;49.214;12.270;2022-12-18T17:14:17;18.80;23.30
49184;DHT22;35021;49.214;12.270;2022-12-18T17:16:45;18.80;23.30
49184;DHT22;35021;49.214;12.270;2022-12-18T17:19:13;18.90;23.30
49184;DHT22;35021;49.214;12.270;2022-12-18T17:21:44;18.90;23.30
49184;DHT22;35021;49.214;12.270;2022-12-18T17:24:13;18.90;23.30
49184;DHT22;35021;49.214;12.270;2022-12-18T17:26:40;18.90;23.30
49184;DHT22;35021;49.214;12.270;2022-12-18T17:29:07;18.90;23.20
49184;DHT22;35021;49.214;12.270;2022-12-18T17:31:35;18.90;23.20
49184;DHT22;35021;49.214;12.270;2022-12-18T17:34:02;19.00;23.20
49184;DHT22;35021;49.214;12.270;2022-12-18T17:36:30;19.00;23.10
49184;DHT22;35021;49.214;12.270;2022-12-18T17:38:59;19.00;23.10
49184;DHT22;35021;49.214;12.270;2022-12-18T17:41:28;19.00;23.10
49184;DHT22;35021;49.214;12.270;2022-12-18T17:44:03;19.00;23.10
49184;DHT22;35021;49.214;12.270;2022-12-18T17:46:32;19.00;23.10
49184;DHT22;35021;49.214;12.270;2022-12-18T17:49:00;19.00;23.10
49184;DHT22;35021;49.214;12.270;2022-12-18T17:51:28;19.10;23.10
49184;DHT22;35021;49.214;12.270;2022-12-18T17:53:56;19.10;23.10
49184;DHT22;35021;49.214;12.270;2022-12-18T17:56:23;19.10;23.10